Port Hardy, British Columbia

07:45 AM PDT ar Gorffennaf 21, 2017 (GMT -0700)
Port Hardy | | Change Station

Elev 226 ft 50.72 °N, 127.51 °W | Updated 11 minutes ago

Cymylog
Cymylog
53.4 °F
Feels Like 53.4 °F
N
1.2
Gwynt Cyfnewidiol Gwynt from GwDGw
Gusts 1.9 mph

Heddiw
High -- | Low -- °F
--% Chance of Precip.
Yesterday
High -- | Low -- °F
Precip. -- mod
Gwasgedd 30.07 mod
Gwelededd 15.0 Milltiroedd
Clouds Few 1200 ft
Few 2500 ft
Cymylog 5500 ft
Gwlithbwynt 52 °F
Lleithder 96%
Rainfall Not available.
Snow Depth Not available.
5:42 AM 9:29 PM
Waning Crescent, 5% visible
SPECI CYZT 211443Z 10006KT 15SM FEW012 FEW025 OVC055 12/11 A3006 RMK SF1SC1SC7 SF TR SH DIST E-S SLP182
Gwasgedd 30.07 mod
Gwelededd 15.0 Milltiroedd
Clouds Few 1200 ft
Few 2500 ft
Cymylog 5500 ft
Gwlithbwynt 52 °F
Lleithder 96%
Rainfall Not available.
Snow Depth Not available.
5:42 AM 9:29 PM
Waning Crescent, 5% visible
SPECI CYZT 211443Z 10006KT 15SM FEW012 FEW025 OVC055 12/11 A3006 RMK SF1SC1SC7 SF TR SH DIST E-S SLP182

Get Severe Weather Alerts

Thanks for signing up!

Be on the lookout for a verification email in your inbox.

You'll start receiving the daily forecast at 6 AM.

×

10-Day Weather Forecast

Almanac

Astronomy

Jul. 21, 2017 Rise Set
Actual Time
Civil Twilight
Nautical Twilight
Astronomical Twilight
Moon
Length Of Visible Light
Length of Day
Tomorrow will be .
, % of the Moon is Illuminated

Today's Extremes

Country Highs Country Lows

Community

WunderPhotos

Category 6

Welcome to Category 6. This is the collective home for Weather Underground's featured writeups by Dr. Jeff Masters (right), Bob Henson (left), Chris Burt, and other regular contributors.

Nearby

Air Quality

  Air Quality AQ Index Pollutant
Not available.

Snow Depth

Station Depth Elevation

Earthquake Activity

City Distance Mag. Time & Date
Minimum magnitude displayed is 2.5.

Coastal Water Temperatures

Lle Tymheredd

Stations

Nearby Weather Stations

Station Location Temp Oerfel Gwynt Gwlithbwynt Lleithder Gwynt Precip. Elev Diweddarwyd Type
                   

Watches & Warnings

There are currently no watches in effect.